MAPA DE AEROPUERTO

INFORMACIÓN METAR y TAF

METAR FOR EKCH
ADDS - METARS form results

(0558 UTC 20 September 2021)
Data provider http://aviationweather.gov/metar/data/
 
METAR text: EKCH 200550Z AUTO 05009KT 9999 BKN050/// 10/06 Q1024 NOSIG
Conditions at: EKCH (COPENHAGEN/KASTR, DK) observed 0550 UTC 20 September 2021
Temperature: 10.0°C (50°F)
Dewpoint: 6.0°C (43°F) [RH = 76%]
Pressure (altimeter): 30.24 inches Hg (1024.0 mb)
Winds: from the NE (50 degrees) at 10 MPH (9 knots; 4.6 m/s)
Visibility: 6 or more miles (10+ km)
Ceiling: 5000 feet AGL
Clouds: broken clouds at 5000 feet AGL
Weather: no significant weather observed at this time

METAR text: EKCH 200520Z AUTO 06012KT 9999 FEW053/// 10/06 Q1023 NOSIG
Conditions at: EKCH (COPENHAGEN/KASTR, DK) observed 0520 UTC 20 September 2021
Temperature: 10.0°C (50°F)
Dewpoint: 6.0°C (43°F) [RH = 76%]
Pressure (altimeter): 30.21 inches Hg (1023.0 mb)
Winds: from the ENE (60 degrees) at 14 MPH (12 knots; 6.2 m/s)
Visibility: 6 or more miles (10+ km)
Ceiling: at least 12,000 feet AGL
Clouds: few clouds at 5300 feet AGL
Weather: no significant weather observed at this time

Forecast for: EKCH (COPENHAGEN/KASTR, DK)
Text: TAF EKCH 200505Z 2006/2106 06010KT 9999 BKN040
Forecast period: 0600 to 1200 UTC 20 September 2021
Forecast type: FROM: standard forecast or significant change
Winds: from the ENE (60 degrees) at 12 MPH (10 knots; 5.1 m/s)
Visibility: 6 or more miles (10+ km)
Ceiling: 4000 feet AGL
Clouds: broken clouds at 4000 feet AGL
Weather: no significant weather forecast for this period
Text: BECMG 2012/2015 VRB03KT
Forecast period: 1200 UTC 20 September 2021 to 0600 UTC 21 September 2021
Forecast type: BECOMING: Conditions expected to become as follows by 1500 UTC 20 September 2021
Winds: variable direction winds at 3 MPH (3 knots; 1.5 m/s)
Visibility: 6 or more miles (10+ km)
Ceiling: 4000 feet AGL
Clouds: broken clouds at 4000 feet AGL
Weather: no significant weather forecast for this period